createdAt,value
2022-12-03T12:43:34.960Z,71.27
2022-12-03T12:46:46.071Z,71.27
2022-12-03T12:49:01.601Z,70.39
2022-12-03T12:51:29.564Z,68.74
2022-12-03T12:53:57.479Z,68.51
2022-12-03T12:56:26.318Z,67.13
2022-12-03T12:58:54.490Z,66.69
2022-12-03T13:01:26.471Z,67.12
2022-12-03T13:03:54.825Z,65.54
2022-12-03T13:06:31.339Z,65.37
2022-12-03T13:09:01.270Z,65.28
2022-12-03T13:11:45.843Z,65.41
2022-12-03T13:14:19.891Z,65.21
2022-12-03T13:16:49.259Z,64.79
2022-12-03T13:19:23.169Z,65.12
2022-12-03T13:22:03.225Z,65.79
2022-12-03T13:24:37.041Z,65.62
2022-12-03T13:27:13.936Z,66.17
2022-12-03T13:29:42.306Z,64.19
2022-12-03T13:32:16.036Z,64.25
2022-12-03T13:34:44.986Z,63.89
2022-12-03T13:37:15.783Z,64.49
2022-12-03T13:39:51.148Z,65.08
2022-12-03T13:42:41.566Z,65.50
2022-12-03T13:45:15.119Z,64.48
2022-12-03T13:47:47.030Z,64.75
2022-12-03T13:50:24.583Z,64.59
2022-12-03T13:52:53.121Z,65.04
2022-12-03T13:55:31.472Z,65.60
2022-12-03T13:57:59.393Z,66.14
2022-12-03T14:00:26.968Z,66.26
2022-12-03T14:02:55.028Z,66.37
2022-12-03T14:05:22.692Z,66.46
2022-12-03T14:07:50.273Z,66.60
2022-12-03T14:10:18.286Z,66.51
2022-12-03T14:12:45.814Z,66.52
2022-12-03T14:15:14.400Z,66.61
2022-12-03T14:17:42.388Z,66.53
2022-12-03T14:20:10.670Z,66.56
2022-12-03T14:22:39.133Z,67.04
2022-12-03T14:25:07.374Z,67.86
2022-12-03T14:27:35.354Z,68.27
2022-12-03T14:30:04.112Z,68.48
2022-12-03T14:32:32.027Z,68.63
2022-12-03T14:35:00.462Z,68.74
2022-12-03T14:37:29.592Z,68.94
2022-12-03T14:39:57.585Z,69.68
2022-12-03T14:42:25.355Z,69.86
2022-12-03T14:44:52.962Z,70.09
2022-12-03T14:47:25.264Z,69.82
2022-12-03T14:49:53.326Z,69.64
2022-12-03T14:52:21.585Z,70.08
2022-12-03T14:54:49.506Z,69.92
2022-12-03T14:57:17.329Z,69.52
2022-12-03T14:59:47.033Z,69.65
2022-12-03T15:02:14.696Z,69.65
2022-12-03T15:04:42.301Z,70.10
2022-12-03T15:07:10.158Z,70.93
2022-12-03T15:09:37.975Z,71.40
2022-12-03T15:12:06.052Z,69.16
2022-12-03T15:14:34.043Z,68.78
2022-12-03T15:17:01.686Z,69.12
2022-12-03T15:19:29.571Z,69.10
2022-12-03T15:21:57.397Z,71.44
2022-12-03T15:24:24.928Z,71.73
2022-12-03T15:26:53.577Z,71.20
2022-12-03T15:29:21.814Z,70.93
2022-12-03T15:31:49.413Z,70.65
2022-12-03T15:34:22.182Z,70.51
2022-12-03T15:36:51.238Z,70.31
2022-12-03T15:39:19.465Z,70.39
2022-12-03T15:41:47.123Z,70.47
2022-12-03T15:44:15.114Z,70.44
2022-12-03T15:46:42.732Z,69.99
2022-12-03T15:49:10.325Z,69.89
2022-12-03T15:51:38.193Z,68.81
2022-12-03T15:54:06.547Z,69.11
2022-12-03T15:56:37.635Z,69.97
2022-12-03T15:59:06.026Z,69.87
2022-12-03T16:01:33.989Z,70.29
2022-12-03T16:04:02.173Z,69.86
2022-12-03T16:06:30.074Z,69.48
2022-12-03T16:08:57.771Z,69.84
2022-12-03T16:11:26.053Z,69.97
2022-12-03T16:13:53.605Z,69.07
2022-12-03T16:16:21.224Z,69.57
2022-12-03T16:18:49.189Z,70.35
2022-12-03T16:21:18.860Z,71.16
2022-12-03T16:23:49.889Z,70.65
2022-12-03T16:26:17.438Z,70.35
2022-12-03T16:28:45.088Z,70.28
2022-12-03T16:31:13.187Z,70.83
2022-12-03T16:33:40.727Z,70.03
2022-12-03T16:36:08.640Z,69.87
2022-12-03T16:38:36.831Z,69.66
2022-12-03T16:41:04.492Z,70.47
2022-12-03T16:43:35.645Z,70.53
2022-12-03T16:46:20.396Z,71.66
2022-12-03T16:48:48.582Z,72.63
2022-12-03T16:51:19.383Z,71.45
2022-12-03T16:53:48.267Z,70.83
2022-12-03T16:56:16.961Z,71.37
2022-12-03T16:58:45.212Z,71.73
2022-12-03T17:01:13.068Z,72.36
2022-12-03T17:03:42.237Z,72.47
2022-12-03T17:06:10.053Z,72.03
2022-12-03T17:08:37.732Z,71.92
2022-12-03T17:11:05.889Z,72.45
2022-12-03T17:13:33.563Z,71.91
2022-12-03T17:16:02.113Z,71.41
2022-12-03T17:18:30.146Z,70.76
2022-12-03T17:20:58.008Z,71.21
2022-12-03T17:23:25.633Z,71.43
2022-12-03T17:25:53.501Z,71.47
2022-12-03T17:28:21.038Z,70.82
2022-12-03T17:30:48.717Z,70.47
2022-12-03T17:33:16.684Z,71.67
2022-12-03T17:35:45.596Z,72.00
2022-12-03T17:38:13.118Z,72.36
2022-12-03T17:40:41.159Z,72.81
2022-12-03T17:43:08.710Z,73.02
2022-12-03T17:45:36.830Z,73.61
2022-12-03T17:48:05.462Z,72.94
2022-12-03T17:50:34.291Z,72.88
2022-12-03T17:53:05.359Z,72.89
2022-12-03T17:55:41.004Z,74.06
2022-12-03T17:58:13.335Z,73.54
2022-12-03T18:00:41.611Z,72.94
2022-12-03T18:03:09.502Z,72.71
2022-12-03T18:05:37.180Z,72.45
2022-12-03T18:08:05.070Z,73.18
2022-12-03T18:10:32.992Z,72.78
2022-12-03T18:13:02.107Z,72.94
2022-12-03T18:15:30.719Z,73.52
2022-12-03T18:17:58.981Z,74.40
2022-12-03T18:20:26.731Z,74.75
2022-12-03T18:22:54.353Z,74.34
2022-12-03T18:25:26.042Z,74.31
2022-12-03T18:27:53.638Z,75.21
2022-12-03T18:30:21.407Z,75.34
2022-12-03T18:32:52.993Z,75.27
2022-12-03T18:35:20.813Z,75.61
2022-12-03T18:37:50.815Z,76.48
2022-12-03T18:40:23.927Z,76.37
2022-12-03T18:42:51.700Z,75.30
2022-12-03T18:45:20.024Z,75.49
2022-12-03T18:47:47.793Z,75.96
2022-12-03T18:50:15.449Z,77.01
2022-12-03T18:52:43.418Z,75.88
2022-12-03T18:55:18.835Z,75.46
2022-12-03T18:57:47.417Z,77.14
2022-12-03T19:00:16.046Z,77.88
2022-12-03T19:03:02.607Z,77.65
2022-12-03T19:05:34.815Z,76.38
2022-12-03T19:08:03.495Z,76.75
2022-12-03T19:10:31.860Z,76.18
2022-12-03T19:12:59.710Z,74.29
2022-12-03T19:15:27.649Z,73.51
2022-12-03T19:17:57.656Z,73.36
2022-12-03T19:20:25.393Z,73.44
2022-12-03T19:22:53.260Z,73.02
2022-12-03T19:25:21.814Z,72.90
2022-12-03T19:27:50.793Z,72.91
2022-12-03T19:30:19.220Z,73.29
2022-12-03T19:32:51.608Z,73.56
2022-12-03T19:35:21.345Z,74.27
2022-12-03T19:37:50.190Z,74.35
2022-12-03T19:40:18.254Z,73.84
2022-12-03T19:42:46.484Z,74.01
2022-12-03T19:45:14.767Z,74.07
2022-12-03T19:47:42.789Z,74.33
2022-12-03T19:50:11.326Z,73.90
2022-12-03T19:52:39.379Z,73.77
2022-12-03T19:55:07.617Z,73.68
2022-12-03T19:57:35.561Z,73.33
2022-12-03T20:00:05.414Z,72.91
2022-12-03T20:02:39.999Z,72.95
2022-12-03T20:05:08.313Z,72.54
2022-12-03T20:07:36.148Z,71.79
2022-12-03T20:10:04.955Z,71.80
2022-12-03T20:12:33.284Z,71.21
2022-12-03T20:15:01.118Z,71.54
2022-12-03T20:17:28.796Z,71.76
2022-12-03T20:19:57.249Z,72.25
2022-12-03T20:22:25.628Z,72.82
2022-12-03T20:24:53.680Z,73.27
2022-12-03T20:27:23.155Z,71.99
2022-12-03T20:29:51.252Z,71.31
2022-12-03T20:32:19.182Z,71.21
2022-12-03T20:34:47.262Z,72.31
2022-12-03T20:37:15.222Z,72.95
2022-12-03T20:39:43.187Z,73.03
2022-12-03T20:42:11.688Z,72.02
2022-12-03T20:44:39.527Z,74.44
2022-12-03T20:47:07.373Z,74.78
2022-12-03T20:49:35.745Z,73.87
2022-12-03T20:52:04.884Z,73.04
2022-12-03T20:54:32.839Z,74.61
2022-12-03T20:57:00.997Z,74.02
2022-12-03T20:59:29.027Z,72.32
2022-12-03T21:01:56.884Z,71.70
2022-12-03T21:04:24.870Z,73.06
2022-12-03T21:06:52.442Z,72.75
2022-12-03T21:09:20.277Z,72.81
2022-12-03T21:11:48.443Z,72.76
2022-12-03T21:14:16.086Z,71.35
2022-12-03T21:19:38.562Z,70.65
2022-12-03T21:22:06.574Z,70.91
2022-12-03T21:24:34.452Z,71.79
2022-12-03T21:27:03.690Z,72.37
2022-12-03T21:29:31.594Z,72.43
2022-12-03T21:31:59.396Z,71.94
2022-12-03T21:34:31.327Z,70.36
2022-12-03T21:37:03.614Z,70.37
2022-12-03T21:39:31.755Z,69.68
2022-12-03T21:42:33.353Z,70.43
2022-12-03T21:44:47.211Z,70.68
2022-12-03T21:47:14.900Z,70.77
2022-12-03T21:49:42.666Z,70.60
2022-12-03T21:52:10.995Z,71.05
2022-12-03T21:54:38.572Z,71.87
2022-12-03T21:57:06.375Z,72.52
2022-12-03T21:59:34.653Z,72.14
2022-12-03T22:02:02.547Z,72.13
2022-12-03T22:04:30.573Z,72.54
2022-12-03T22:06:58.130Z,72.88
2022-12-03T22:09:26.891Z,73.96
2022-12-03T22:11:56.951Z,73.67
2022-12-03T22:14:25.093Z,76.26
2022-12-03T22:16:52.680Z,74.53
2022-12-03T22:19:24.758Z,74.09
2022-12-03T22:21:52.488Z,73.81
2022-12-03T22:24:20.378Z,73.96
2022-12-03T22:26:47.918Z,75.25
2022-12-03T22:29:15.671Z,75.16
2022-12-03T22:31:44.346Z,74.35
2022-12-03T22:34:12.190Z,74.18
2022-12-03T22:36:39.699Z,75.07
2022-12-03T22:39:07.583Z,75.46
2022-12-03T22:41:35.166Z,75.25
2022-12-03T22:44:02.774Z,75.00
2022-12-03T22:46:30.879Z,75.40
2022-12-03T22:49:01.810Z,75.52
2022-12-03T22:51:33.025Z,76.21
2022-12-03T22:54:01.866Z,75.70
2022-12-03T22:56:30.580Z,75.44
2022-12-03T22:58:58.760Z,75.42
2022-12-03T23:01:32.170Z,75.70
2022-12-03T23:04:01.187Z,75.94
2022-12-03T23:06:30.523Z,76.06
2022-12-03T23:08:58.863Z,75.66
2022-12-03T23:11:27.490Z,76.19
2022-12-03T23:13:55.188Z,76.95
2022-12-03T23:16:26.734Z,76.64
2022-12-03T23:18:54.801Z,76.51
2022-12-03T23:21:29.977Z,76.52
2022-12-03T23:23:59.445Z,76.65
2022-12-03T23:26:28.365Z,76.96
2022-12-03T23:28:56.624Z,76.61
2022-12-03T23:31:27.829Z,77.24
2022-12-03T23:33:56.963Z,76.98
2022-12-03T23:36:27.195Z,76.90
2022-12-03T23:38:54.879Z,76.91
2022-12-03T23:41:23.950Z,76.72
2022-12-03T23:43:52.453Z,76.54
2022-12-03T23:46:23.725Z,76.47
2022-12-03T23:48:52.223Z,75.83
2022-12-03T23:51:23.799Z,76.04
2022-12-03T23:53:53.179Z,75.87
2022-12-03T23:56:24.237Z,75.93
2022-12-03T23:58:51.806Z,76.01
